createdAt,value
2024-02-08T00:01:39.945Z,1.30
2024-02-08T00:04:08.083Z,1.00
2024-02-08T00:06:37.681Z,1.17
2024-02-08T00:09:07.501Z,1.35
2024-02-08T00:11:35.551Z,1.30
2024-02-08T00:14:03.700Z,1.10
2024-02-08T00:16:31.938Z,1.20
2024-02-08T00:19:03.781Z,1.08
2024-02-08T00:21:33.512Z,1.38
2024-02-08T00:24:02.798Z,0.95
2024-02-08T00:26:30.492Z,1.20
2024-02-08T00:28:58.362Z,0.95
2024-02-08T00:31:26.992Z,1.10
2024-02-08T00:33:55.241Z,1.08
2024-02-08T00:36:23.114Z,1.10
2024-02-08T00:38:51.101Z,0.90
2024-02-08T00:41:25.426Z,1.00
2024-02-08T00:43:53.502Z,0.90
2024-02-08T00:46:21.869Z,1.33
2024-02-08T00:48:49.991Z,1.30
2024-02-08T00:51:18.184Z,1.20
2024-02-08T00:53:46.198Z,1.08
2024-02-08T00:56:14.947Z,1.00
2024-02-08T00:58:45.653Z,1.05
2024-02-08T01:01:13.529Z,1.20
2024-02-08T01:03:41.465Z,0.80
2024-02-08T01:06:09.598Z,0.93
2024-02-08T01:08:38.667Z,1.20
2024-02-08T01:11:06.751Z,0.98
2024-02-08T01:13:35.094Z,1.33
2024-02-08T01:16:04.692Z,0.95
2024-02-08T01:18:34.398Z,1.30
2024-02-08T01:21:02.471Z,1.08
2024-02-08T01:23:30.523Z,1.38
2024-02-08T01:25:58.796Z,1.10
2024-02-08T01:28:28.556Z,1.08
2024-02-08T01:30:56.704Z,1.10
2024-02-08T01:33:26.306Z,1.20
2024-02-08T01:35:54.594Z,1.00
2024-02-08T01:38:22.863Z,1.77
2024-02-08T01:40:51.546Z,1.38
2024-02-08T01:43:19.635Z,1.50
2024-02-08T01:45:48.105Z,1.25
2024-02-08T01:48:18.454Z,1.52
2024-02-08T01:50:52.431Z,1.25
2024-02-08T01:53:29.656Z,1.33
2024-02-08T01:56:02.232Z,1.10
2024-02-08T01:58:33.234Z,1.50
2024-02-08T02:01:02.239Z,1.20
2024-02-08T02:03:33.392Z,1.23
2024-02-08T02:06:03.053Z,1.10
2024-02-08T02:08:34.527Z,1.48
2024-02-08T02:11:09.190Z,1.05
2024-02-08T02:13:39.799Z,1.30
2024-02-08T02:16:08.205Z,1.33
2024-02-08T02:18:37.980Z,1.48
2024-02-08T02:21:07.547Z,1.23
2024-02-08T02:23:36.997Z,1.50
2024-02-08T02:26:06.265Z,1.20
2024-02-08T02:28:34.994Z,1.50
2024-02-08T02:31:07.232Z,1.05
2024-02-08T02:33:37.077Z,1.20
2024-02-08T02:36:08.558Z,0.90
2024-02-08T02:38:38.370Z,1.30
2024-02-08T02:41:08.150Z,0.80
2024-02-08T02:43:38.382Z,1.60
2024-02-08T02:46:07.577Z,1.00
2024-02-08T02:48:41.888Z,1.30
2024-02-08T02:51:13.077Z,0.98
2024-02-08T02:53:42.780Z,0.93
2024-02-08T02:56:13.218Z,0.90
2024-02-08T02:58:41.681Z,0.90
2024-02-08T03:01:09.800Z,0.90
2024-02-08T03:03:40.068Z,1.10
2024-02-08T03:06:15.449Z,0.93
2024-02-08T03:08:47.665Z,0.90
2024-02-08T03:11:16.709Z,0.88
2024-02-08T03:13:48.022Z,0.85
2024-02-08T03:16:18.921Z,1.08
2024-02-08T03:18:50.552Z,0.88
2024-02-08T03:21:23.374Z,1.00
2024-02-08T03:23:57.652Z,0.98
2024-02-08T03:26:25.865Z,1.27
2024-02-08T03:28:55.698Z,0.90
2024-02-08T03:31:25.484Z,0.80
2024-02-08T03:33:55.416Z,0.70
2024-02-08T03:36:25.127Z,1.13
2024-02-08T03:38:54.958Z,0.77
2024-02-08T03:41:22.903Z,1.17
2024-02-08T03:43:52.293Z,0.90
2024-02-08T03:46:22.165Z,0.80
2024-02-08T03:48:51.153Z,0.98
2024-02-08T03:51:20.570Z,0.90
2024-02-08T03:53:48.495Z,0.90
2024-02-08T03:56:18.776Z,0.80
2024-02-08T03:58:48.013Z,0.70
2024-02-08T04:01:16.727Z,1.42
2024-02-08T04:03:55.237Z,1.00
2024-02-08T04:06:39.297Z,2.65
2024-02-08T04:09:10.364Z,0.88
2024-02-08T04:11:58.121Z,1.00
2024-02-08T04:14:43.570Z,1.20
2024-02-08T04:17:29.618Z,1.00
2024-02-08T04:20:14.971Z,0.97
2024-02-08T04:23:00.631Z,0.80
2024-02-08T04:25:46.562Z,0.90
2024-02-08T04:28:33.403Z,0.80
2024-02-08T04:31:48.466Z,1.05
2024-02-08T04:38:34.201Z,0.80
2024-02-08T04:41:29.502Z,0.70
2024-02-08T04:44:20.903Z,1.00
2024-02-08T04:47:10.019Z,1.00
2024-02-08T04:50:03.474Z,0.70
2024-02-08T04:52:49.032Z,1.10
2024-02-08T04:55:17.326Z,1.05
2024-02-08T04:57:46.453Z,0.80
2024-02-08T05:00:19.877Z,0.90
2024-02-08T05:02:50.776Z,1.00
2024-02-08T05:05:20.630Z,1.10
2024-02-08T05:08:02.429Z,1.05
2024-02-08T05:15:40.756Z,1.10
2024-02-08T05:19:22.920Z,0.90
2024-02-08T05:35:34.397Z,0.90
2024-02-08T05:38:02.732Z,1.20
2024-02-08T05:40:32.665Z,0.95
2024-02-08T05:43:00.983Z,0.82
2024-02-08T05:45:32.778Z,0.75
2024-02-08T05:48:07.403Z,0.93
2024-02-08T05:50:37.840Z,1.00
2024-02-08T05:53:08.777Z,1.70
2024-02-08T05:55:36.769Z,0.90
2024-02-08T05:58:08.183Z,1.05
2024-02-08T06:00:46.903Z,1.20
2024-02-08T06:03:28.912Z,1.00
2024-02-08T06:06:08.361Z,0.90
2024-02-08T06:08:41.196Z,0.93
2024-02-08T06:11:17.865Z,0.80
2024-02-08T06:13:52.180Z,0.80
2024-02-08T06:16:29.028Z,0.75
2024-02-08T06:19:04.485Z,0.88
2024-02-08T06:21:51.011Z,1.20
2024-02-08T06:24:49.780Z,1.00
2024-02-08T06:27:38.000Z,0.90
2024-02-08T06:30:19.831Z,0.73
2024-02-08T06:33:05.726Z,0.77
2024-02-08T06:35:37.195Z,1.05
2024-02-08T06:38:15.324Z,0.90
2024-02-08T06:40:52.224Z,1.25
2024-02-08T06:43:46.811Z,1.33
2024-02-08T06:46:19.629Z,0.80
2024-02-08T06:49:10.811Z,0.60
2024-02-08T06:51:56.530Z,0.85
2024-02-08T06:54:44.922Z,1.10
2024-02-08T06:57:32.780Z,0.90
2024-02-08T07:00:18.897Z,0.88
2024-02-08T07:03:15.368Z,0.90
2024-02-08T07:06:01.011Z,1.00
2024-02-08T07:08:46.878Z,1.20
2024-02-08T07:11:36.045Z,0.70
2024-02-08T07:14:21.624Z,1.10
2024-02-08T07:17:07.083Z,1.10
2024-02-08T07:20:07.217Z,1.00
2024-02-08T07:22:53.098Z,1.10
2024-02-08T07:25:52.730Z,1.20
2024-02-08T07:28:39.677Z,1.02
2024-02-08T07:31:33.333Z,1.02
2024-02-08T07:34:18.289Z,0.93
2024-02-08T07:37:04.030Z,1.17
2024-02-08T07:39:37.229Z,1.65
2024-02-08T07:42:13.898Z,1.30
2024-02-08T07:44:49.772Z,1.20
2024-02-08T07:47:25.783Z,0.90
2024-02-08T07:49:59.557Z,1.30
2024-02-08T07:52:29.274Z,1.40
2024-02-08T07:55:16.207Z,1.05
2024-02-08T07:57:52.218Z,1.20
2024-02-08T08:00:43.078Z,1.00
2024-02-08T08:03:17.017Z,1.73
2024-02-08T08:05:52.642Z,1.55
2024-02-08T08:08:27.744Z,1.33
2024-02-08T08:10:58.389Z,1.30
2024-02-08T08:13:48.615Z,1.23
2024-02-08T08:16:35.978Z,1.05
2024-02-08T08:19:10.575Z,1.10
2024-02-08T08:21:54.342Z,1.95
2024-02-08T08:24:26.869Z,1.77
2024-02-08T08:27:07.953Z,1.60
2024-02-08T08:29:53.420Z,2.20
2024-02-08T08:32:40.552Z,1.75
2024-02-08T08:35:39.138Z,1.15
2024-02-08T08:38:30.796Z,1.10
2024-02-08T08:41:05.593Z,1.40
2024-02-08T08:43:36.924Z,1.40
2024-02-08T08:46:10.970Z,1.10
2024-02-08T08:48:41.702Z,1.00
2024-02-08T08:51:15.677Z,0.93
2024-02-08T08:53:57.770Z,1.10
2024-02-08T08:56:29.541Z,1.10
2024-02-08T08:59:00.223Z,1.10
2024-02-08T09:01:31.345Z,1.45
2024-02-08T09:04:12.170Z,1.00
2024-02-08T09:06:43.216Z,1.20
2024-02-08T09:09:25.420Z,1.43
2024-02-08T09:11:58.907Z,0.97
2024-02-08T09:14:31.436Z,1.47
2024-02-08T09:17:00.176Z,0.93
2024-02-08T09:19:33.528Z,0.90
2024-02-08T09:22:04.029Z,1.13
2024-02-08T09:24:43.958Z,1.00
2024-02-08T09:27:18.278Z,1.00
2024-02-08T09:29:57.714Z,0.90
2024-02-08T09:32:41.421Z,1.10
2024-02-08T09:35:14.892Z,0.80
2024-02-08T09:37:47.046Z,0.90
2024-02-08T09:40:43.797Z,0.90
2024-02-08T09:43:19.276Z,0.80
2024-02-08T09:46:03.008Z,0.93
2024-02-08T09:48:38.757Z,1.20
2024-02-08T09:51:14.408Z,0.90
2024-02-08T09:53:53.231Z,1.00
2024-02-08T09:56:37.040Z,1.00
2024-02-08T09:59:11.256Z,0.80
2024-02-08T10:01:45.058Z,0.97
2024-02-08T10:04:18.439Z,1.10
2024-02-08T10:06:58.849Z,1.27
2024-02-08T10:09:42.142Z,3.63
2024-02-08T10:12:20.699Z,0.93
2024-02-08T10:14:56.499Z,0.90
2024-02-08T10:17:26.759Z,1.30
2024-02-08T10:20:17.682Z,0.80
2024-02-08T10:22:58.030Z,1.20
2024-02-08T10:25:44.383Z,0.70
2024-02-08T10:28:12.620Z,0.80
2024-02-08T10:30:45.858Z,0.80
2024-02-08T10:33:16.807Z,1.23
2024-02-08T10:35:48.804Z,0.93
2024-02-08T10:38:31.462Z,1.00
2024-02-08T10:41:00.322Z,1.00
2024-02-08T10:43:38.428Z,0.73
2024-02-08T10:46:17.771Z,1.07
2024-02-08T10:48:50.960Z,0.90
2024-02-08T10:51:27.378Z,0.83
2024-02-08T10:54:06.488Z,1.00
2024-02-08T10:56:46.590Z,1.33
2024-02-08T10:59:21.502Z,1.43
2024-02-08T11:02:03.726Z,1.00
2024-02-08T11:04:32.503Z,1.20
2024-02-08T11:07:18.441Z,1.00
2024-02-08T11:09:48.005Z,0.90
2024-02-08T11:12:22.801Z,0.80
2024-02-08T11:14:58.039Z,0.80
2024-02-08T11:17:33.803Z,1.03
2024-02-08T11:20:05.135Z,1.20
2024-02-08T11:22:44.189Z,1.40
2024-02-08T11:25:24.597Z,0.87
2024-02-08T11:27:57.194Z,1.00
2024-02-08T11:30:35.157Z,1.17
2024-02-08T11:33:04.894Z,1.27
2024-02-08T11:35:33.906Z,1.17
2024-02-08T11:38:17.170Z,0.80
2024-02-08T11:40:50.913Z,1.00
2024-02-08T11:43:25.202Z,1.17
2024-02-08T11:45:54.984Z,2.03
2024-02-08T11:48:28.396Z,0.93
2024-02-08T11:51:00.010Z,1.47
2024-02-08T11:53:35.228Z,1.40
2024-02-08T11:56:10.019Z,0.80
2024-02-08T11:58:41.561Z,1.10
2024-02-08T12:01:11.176Z,1.30
2024-02-08T12:03:42.616Z,1.30
2024-02-08T12:06:25.785Z,1.17
2024-02-08T12:08:58.953Z,1.10
2024-02-08T12:11:32.233Z,0.90
2024-02-08T12:14:11.436Z,1.30
2024-02-08T12:16:51.637Z,1.40
2024-02-08T12:19:19.967Z,1.20
2024-02-08T12:21:57.774Z,1.50
2024-02-08T12:24:25.929Z,1.50
2024-02-08T12:26:59.281Z,1.60
2024-02-08T12:29:31.275Z,1.20
2024-02-08T12:31:59.976Z,1.10
2024-02-08T12:34:34.440Z,1.27
2024-02-08T12:37:06.462Z,1.30
2024-02-08T12:39:36.897Z,1.57
2024-02-08T12:42:07.183Z,1.30
2024-02-08T12:44:36.526Z,1.30
2024-02-08T12:47:07.541Z,1.80
2024-02-08T12:49:36.241Z,1.23
2024-02-08T12:52:05.340Z,1.40
2024-02-08T12:54:34.991Z,2.37
2024-02-08T12:57:09.210Z,1.83
2024-02-08T12:59:40.031Z,1.57
2024-02-08T13:02:11.336Z,1.53
2024-02-08T13:04:45.401Z,2.00
2024-02-08T13:07:16.789Z,1.90
2024-02-08T13:09:46.483Z,1.83
2024-02-08T13:12:20.460Z,1.60
2024-02-08T13:15:04.085Z,1.90
2024-02-08T13:17:34.684Z,1.70
2024-02-08T13:20:13.110Z,1.73
2024-02-08T13:22:46.260Z,1.97
2024-02-08T13:25:14.584Z,1.57
2024-02-08T13:27:46.124Z,1.93
2024-02-08T13:30:18.602Z,2.13
2024-02-08T13:32:50.576Z,2.50
2024-02-08T13:35:20.695Z,1.90
2024-02-08T13:37:51.250Z,2.00
2024-02-08T13:40:20.431Z,2.50
2024-02-08T13:42:54.800Z,2.40
2024-02-08T13:45:30.684Z,2.40
2024-02-08T13:48:02.372Z,2.90
2024-02-08T13:50:32.677Z,2.77
2024-02-08T13:53:03.827Z,2.60
2024-02-08T13:58:08.482Z,3.03
2024-02-08T14:00:38.624Z,3.90
2024-02-08T14:03:09.718Z,3.97
2024-02-08T14:05:40.807Z,2.00
2024-02-08T14:08:18.148Z,2.40
2024-02-08T14:10:47.094Z,2.67
2024-02-08T14:13:20.366Z,4.17
2024-02-08T14:15:50.415Z,4.33
2024-02-08T14:18:34.280Z,3.40
2024-02-08T14:21:04.473Z,3.40
2024-02-08T14:23:39.079Z,2.60
2024-02-08T14:26:31.635Z,2.83
2024-02-08T14:29:04.117Z,2.93
2024-02-08T14:31:38.716Z,2.67
2024-02-08T14:34:11.110Z,3.40
2024-02-08T14:36:48.605Z,2.30
2024-02-08T14:39:30.528Z,2.40
2024-02-08T14:42:01.027Z,4.20
2024-02-08T14:44:42.532Z,3.60
2024-02-08T14:47:19.400Z,3.03
2024-02-08T14:50:02.198Z,3.23
2024-02-08T14:52:38.164Z,2.97
2024-02-08T14:55:22.299Z,3.03
2024-02-08T14:57:53.970Z,1.90
2024-02-08T15:00:45.311Z,3.90
2024-02-08T15:03:23.232Z,3.27
2024-02-08T15:06:01.046Z,3.43
2024-02-08T15:08:31.205Z,3.30
2024-02-08T15:11:10.259Z,3.23
2024-02-08T15:13:47.642Z,2.60
2024-02-08T15:16:17.637Z,3.47
2024-02-08T15:18:49.739Z,3.50
2024-02-08T15:21:25.064Z,3.20
2024-02-08T15:24:11.582Z,3.00
2024-02-08T15:26:45.784Z,4.23
2024-02-08T15:29:31.798Z,3.23
2024-02-08T15:32:04.027Z,4.33
2024-02-08T15:34:48.173Z,3.93
2024-02-08T15:37:17.744Z,4.17
2024-02-08T15:40:12.640Z,3.80
2024-02-08T15:42:41.779Z,4.23
2024-02-08T15:45:14.766Z,2.40
2024-02-08T15:48:05.144Z,4.37
2024-02-08T15:50:47.868Z,4.43
2024-02-08T15:53:19.914Z,4.40
2024-02-08T15:55:50.882Z,4.17
2024-02-08T15:58:20.382Z,4.67
2024-02-08T16:01:12.001Z,4.43
2024-02-08T16:03:47.636Z,4.30
2024-02-08T16:06:34.223Z,5.10
2024-02-08T16:09:03.157Z,5.47
2024-02-08T16:11:31.388Z,3.87
2024-02-08T16:14:04.695Z,3.30
2024-02-08T16:16:33.830Z,4.00
2024-02-08T16:19:21.984Z,3.87
2024-02-08T16:21:57.542Z,4.27
2024-02-08T16:24:32.204Z,5.20
2024-02-08T16:27:01.072Z,3.30
2024-02-08T16:29:36.473Z,4.10
2024-02-08T16:32:08.538Z,4.87
2024-02-08T16:34:52.369Z,4.83
2024-02-08T16:37:41.829Z,4.70
2024-02-08T16:40:16.227Z,5.10
2024-02-08T16:42:49.157Z,6.30
2024-02-08T16:45:36.116Z,3.80
2024-02-08T16:48:16.053Z,4.10
2024-02-08T16:50:47.891Z,4.27
2024-02-08T16:53:20.688Z,4.93
2024-02-08T16:55:58.794Z,5.67
2024-02-08T16:58:40.050Z,4.23
2024-02-08T17:01:24.208Z,4.10
2024-02-08T17:04:02.243Z,3.73
2024-02-08T17:06:45.473Z,4.70
2024-02-08T17:09:17.446Z,4.83
2024-02-08T17:12:00.270Z,4.03
2024-02-08T17:14:38.399Z,4.30
2024-02-08T17:17:23.196Z,4.97
2024-02-08T17:19:59.656Z,4.30
2024-02-08T17:22:50.604Z,4.20
2024-02-08T17:25:43.128Z,4.40
2024-02-08T17:28:32.713Z,4.33
2024-02-08T17:31:08.671Z,4.93
2024-02-08T17:33:48.120Z,4.30
2024-02-08T17:36:16.429Z,5.00
2024-02-08T17:38:45.516Z,4.57
2024-02-08T17:41:20.458Z,4.53
2024-02-08T17:43:52.044Z,5.27
2024-02-08T17:46:23.232Z,3.90
2024-02-08T17:48:55.967Z,4.97
2024-02-08T17:51:32.882Z,4.10
2024-02-08T17:54:09.682Z,5.87
2024-02-08T17:56:43.614Z,3.83
2024-02-08T17:59:17.830Z,4.77
2024-02-08T18:02:02.431Z,4.37
2024-02-08T18:04:32.271Z,4.20
2024-02-08T18:07:10.584Z,3.60
2024-02-08T18:09:41.869Z,4.07
2024-02-08T18:12:22.757Z,4.87
2024-02-08T18:14:52.354Z,4.13
2024-02-08T18:17:25.311Z,4.40
2024-02-08T18:19:54.570Z,5.10
2024-02-08T18:22:31.192Z,3.90
2024-02-08T18:25:00.473Z,4.93
2024-02-08T18:27:33.976Z,4.80
2024-02-08T18:30:10.674Z,5.83
2024-02-08T18:32:40.115Z,5.27
2024-02-08T18:35:09.545Z,4.37
2024-02-08T18:37:37.934Z,4.67
2024-02-08T18:40:09.293Z,5.00
2024-02-08T18:42:40.006Z,4.70
2024-02-08T18:45:17.103Z,5.00
2024-02-08T18:47:45.477Z,5.00
2024-02-08T18:50:14.040Z,4.90
2024-02-08T18:52:43.321Z,4.20
2024-02-08T18:55:11.768Z,4.70
2024-02-08T18:57:42.194Z,4.63
2024-02-08T19:00:14.865Z,4.40
2024-02-08T19:02:43.116Z,5.00
2024-02-08T19:05:14.152Z,5.03
2024-02-08T19:07:43.500Z,5.07
2024-02-08T19:10:14.684Z,5.50
2024-02-08T19:12:43.969Z,5.00
2024-02-08T19:15:12.125Z,4.93
2024-02-08T19:17:45.508Z,5.30
2024-02-08T19:20:26.815Z,5.50
2024-02-08T19:22:58.143Z,6.03
2024-02-08T19:25:30.653Z,5.33
2024-02-08T19:28:00.849Z,4.50
2024-02-08T19:30:31.639Z,4.80
2024-02-08T19:33:01.251Z,5.00
2024-02-08T19:35:33.040Z,4.97
2024-02-08T19:38:05.022Z,4.93
2024-02-08T19:40:34.695Z,6.10
2024-02-08T19:43:06.479Z,4.90
2024-02-08T19:45:34.701Z,4.93
2024-02-08T19:48:04.199Z,5.40
2024-02-08T19:50:34.151Z,4.63
2024-02-08T19:53:07.567Z,4.40
2024-02-08T19:55:40.057Z,4.97
2024-02-08T19:58:10.062Z,4.57
2024-02-08T20:00:39.071Z,4.67
2024-02-08T20:03:17.500Z,5.40
2024-02-08T20:05:48.315Z,4.67
2024-02-08T20:08:17.638Z,4.73
2024-02-08T20:10:48.182Z,4.80
2024-02-08T20:13:19.406Z,4.37
2024-02-08T20:15:49.525Z,4.57
2024-02-08T20:18:19.976Z,4.30
2024-02-08T20:20:49.315Z,4.90
2024-02-08T20:23:23.429Z,5.33
2024-02-08T20:25:55.425Z,4.70
2024-02-08T20:28:25.175Z,5.07
2024-02-08T20:30:55.624Z,5.40
2024-02-08T20:33:24.076Z,4.83
2024-02-08T20:35:52.012Z,4.40
2024-02-08T20:38:20.103Z,4.53
2024-02-08T20:40:50.452Z,4.67
2024-02-08T20:43:23.000Z,4.63
2024-02-08T20:45:52.604Z,5.13
2024-02-08T20:48:21.668Z,4.63
2024-02-08T20:50:52.000Z,4.80
2024-02-08T20:53:20.218Z,4.70
2024-02-08T20:55:49.315Z,4.50
2024-02-08T20:58:18.664Z,4.43
2024-02-08T21:00:49.540Z,5.00
2024-02-08T21:03:22.193Z,5.30
2024-02-08T21:05:51.106Z,4.50
2024-02-08T21:08:19.146Z,6.07
2024-02-08T21:10:48.113Z,4.40
2024-02-08T21:13:18.547Z,4.07
2024-02-08T21:15:48.937Z,5.47
2024-02-08T21:18:20.602Z,4.47
2024-02-08T21:20:50.939Z,5.63
2024-02-08T21:23:19.944Z,5.20
2024-02-08T21:25:51.592Z,4.50
2024-02-08T21:28:20.519Z,4.23
2024-02-08T21:30:48.796Z,3.70
2024-02-08T21:33:18.394Z,4.80
2024-02-08T21:35:46.948Z,4.30
2024-02-08T21:38:18.063Z,4.20
2024-02-08T21:40:47.764Z,3.77
2024-02-08T21:43:16.875Z,4.90
2024-02-08T21:45:47.600Z,4.13
2024-02-08T21:48:17.798Z,5.07
2024-02-08T21:50:48.938Z,3.30
2024-02-08T21:53:17.747Z,3.83
2024-02-08T21:55:46.030Z,4.10
2024-02-08T21:58:14.345Z,4.43
2024-02-08T22:00:44.543Z,3.50
2024-02-08T22:03:15.343Z,3.80
2024-02-08T22:05:45.387Z,3.77
2024-02-08T22:08:18.778Z,3.70
2024-02-08T22:10:50.806Z,3.87
2024-02-08T22:13:19.264Z,4.67
2024-02-08T22:15:48.494Z,4.20
2024-02-08T22:18:16.648Z,3.70
2024-02-08T22:20:45.292Z,3.50
2024-02-08T22:23:13.060Z,4.43
2024-02-08T22:25:43.298Z,3.27
2024-02-08T22:28:12.003Z,2.70
2024-02-08T22:30:39.866Z,3.80
2024-02-08T22:33:08.660Z,3.00
2024-02-08T22:35:37.589Z,4.60
2024-02-08T22:38:07.493Z,3.23
2024-02-08T22:40:36.882Z,3.70
2024-02-08T22:43:07.313Z,3.30
2024-02-08T22:45:35.775Z,3.20
2024-02-08T22:48:04.546Z,3.27
2024-02-08T22:50:32.651Z,4.60
2024-02-08T22:53:06.837Z,3.97
2024-02-08T22:55:34.824Z,3.20
2024-02-08T22:58:03.238Z,3.10
2024-02-08T23:00:49.050Z,3.77
2024-02-08T23:03:18.080Z,3.37
2024-02-08T23:05:56.245Z,2.70
2024-02-08T23:08:25.010Z,3.00
2024-02-08T23:10:52.901Z,3.23
2024-02-08T23:13:20.720Z,3.30
2024-02-08T23:15:50.415Z,3.17
2024-02-08T23:18:20.059Z,4.07
2024-02-08T23:20:51.306Z,3.10
2024-02-08T23:23:21.201Z,2.30
2024-02-08T23:25:49.983Z,3.30
2024-02-08T23:30:49.971Z,3.40
2024-02-08T23:33:19.254Z,2.87
2024-02-08T23:35:47.717Z,3.37
2024-02-08T23:38:19.099Z,3.23
2024-02-08T23:40:47.212Z,3.20
2024-02-08T23:43:15.710Z,3.77
2024-02-08T23:45:44.462Z,3.13
2024-02-08T23:48:14.985Z,3.70
2024-02-08T23:50:43.792Z,3.90
2024-02-08T23:53:11.854Z,3.20
2024-02-08T23:55:39.986Z,3.00
2024-02-08T23:58:12.110Z,2.50
